Terminal Aerodrome Forecast
Issued by NWS Atlanta, GA

Home | Current Version | Previous Version | Text Only | Print | Product List | Glossary On
Versions: 1 2 3 4 5 6 7 8 9 10 11 12 13 14 15 16 17
030
FTUS42 KFFC 190533
TAFCSG
TAF
KCSG 190533Z 1906/2006 00000KT P6SM SCT250
     FM190900 VRB03KT 5SM BR BKN120
     FM191300 VRB03KT P6SM BKN120
     FM191800 17007KT P6SM SCT030 BKN120
     FM200000 16006KT P6SM -SHRA OVC030 PROB30 2000/2004 TSRA
      OVC030CB=

USA.gov is the U.S. government's official web portal to all federal, state and local government web resources and services.